Time;durP1;ratioP1;P1;durP2;ratioP2;P2;SDS_P1;SDS_P2;PMS_P1;PMS_P2;Temp;Humidity;BMP_temperature;BMP_pressure;BME280_temperature;BME280_humidity;BME280_pressure;Samples;Min_cycle;Max_cycle;Signal;HPM_P1;HPM_P2
2024/01/08 00:04:51;;;;;;;16.67;9.90;;;;;-1.80;102299.00;;;;9821042;29;20750;-88
2024/01/08 00:09:52;;;;;;;14.00;8.83;;;;;-1.70;102298.00;;;;9813133;29;20236;-89
2024/01/08 00:14:53;;;;;;;12.77;9.27;;;;;-1.70;102311.00;;;;9828996;29;21010;-87
2024/01/08 00:19:54;;;;;;;15.40;9.87;;;;;-1.60;102315.00;;;;9816478;29;20887;-88
2024/01/08 00:24:56;;;;;;;14.57;9.80;;;;;-1.50;102300.00;;;;9830456;29;20236;-86
2024/01/08 00:29:57;;;;;;;14.43;8.20;;;;;-1.50;102311.00;;;;9830114;29;20297;-86
2024/01/08 00:34:58;;;;;;;13.03;8.63;;;;;-1.50;102315.00;;;;9832209;30;20232;-89
2024/01/08 00:39:59;;;;;;;13.70;8.37;;;;;-1.50;102324.00;;;;9828508;29;20354;-86
2024/01/08 00:45:03;;;;;;;10.93;7.57;;;;;-1.50;102322.00;;;;9833998;29;20330;-86
2024/01/08 00:50:06;;;;;;;11.20;7.33;;;;;-1.40;102330.00;;;;9850166;29;20232;-86
2024/01/08 00:55:08;;;;;;;8.70;6.87;;;;;-1.50;102320.00;;;;9859637;29;20236;-85
2024/01/08 01:31:18;;;;;;;12.40;7.47;;;;;-1.40;102326.00;;;;11643979;24;20236;-85
2024/01/08 01:54:37;;;;;;;9.50;6.77;;;;;-1.50;102339.00;;;;10393090;24;20249;-86
2024/01/08 01:59:38;;;;;;;7.37;6.27;;;;;-1.50;102338.00;;;;10160872;24;20243;-85
2024/01/08 02:04:41;;;;;;;10.27;6.93;;;;;-1.50;102338.00;;;;9849302;29;20243;-80
2024/01/08 02:09:43;;;;;;;8.40;6.53;;;;;-1.60;102337.00;;;;9842903;29;20264;-79
2024/01/08 02:14:44;;;;;;;10.10;7.70;;;;;-1.70;102339.00;;;;9854805;29;20254;-79
2024/01/08 02:19:45;;;;;;;8.93;7.03;;;;;-1.70;102338.00;;;;9835965;29;20282;-83
2024/01/08 02:24:47;;;;;;;7.90;6.33;;;;;-1.80;102340.00;;;;9841126;29;20250;-80
2024/01/08 02:29:48;;;;;;;9.27;5.70;;;;;-1.80;102342.00;;;;9864196;29;20690;-80
2024/01/08 02:34:49;;;;;;;9.53;6.67;;;;;-1.80;102342.00;;;;9842827;29;20889;-80
2024/01/08 02:39:51;;;;;;;8.33;6.63;;;;;-1.80;102330.00;;;;9842148;29;20235;-82
2024/01/08 02:44:52;;;;;;;9.30;6.00;;;;;-1.80;102328.00;;;;9842160;29;21029;-81
2024/01/08 02:49:53;;;;;;;10.20;7.17;;;;;-1.80;102332.00;;;;9846367;29;20250;-80
2024/01/08 02:54:54;;;;;;;10.97;8.03;;;;;-1.70;102347.00;;;;9852787;29;20640;-80
2024/01/08 02:59:56;;;;;;;11.40;7.03;;;;;-1.80;102348.00;;;;9838419;29;20973;-81
2024/01/08 03:04:57;;;;;;;14.07;7.60;;;;;-1.70;102347.00;;;;9825004;29;20270;-81
2024/01/08 03:09:59;;;;;;;14.57;8.50;;;;;-1.70;102340.00;;;;9838739;29;20881;-80
2024/01/08 03:15:01;;;;;;;11.70;8.20;;;;;-1.80;102360.00;;;;9821031;29;20687;-80
2024/01/08 03:20:08;;;;;;;10.97;9.20;;;;;-1.80;102368.00;;;;9820829;29;20867;-81
2024/01/08 03:25:09;;;;;;;10.40;9.10;;;;;-1.90;102359.00;;;;9799572;29;20310;-81
2024/01/08 03:30:11;;;;;;;11.10;7.17;;;;;-1.90;102371.00;;;;9846636;29;20232;-83
2024/01/08 03:35:12;;;;;;;10.90;7.87;;;;;-1.90;102376.00;;;;9801572;29;20314;-80
2024/01/08 03:40:14;;;;;;;10.50;7.30;;;;;-1.90;102377.00;;;;9818265;30;20232;-81
2024/01/08 03:45:15;;;;;;;9.20;6.57;;;;;-1.90;102389.00;;;;9836938;29;20239;-81
2024/01/08 03:50:16;;;;;;;7.80;6.77;;;;;-1.90;102394.00;;;;9826347;29;20251;-81
2024/01/08 03:55:17;;;;;;;9.93;6.77;;;;;-1.80;102396.00;;;;9835598;29;20244;-82
2024/01/08 04:00:18;;;;;;;7.00;6.20;;;;;-1.80;102398.00;;;;9839616;29;20235;-80
2024/01/08 04:05:20;;;;;;;9.73;5.70;;;;;-1.80;102391.00;;;;9843982;29;20270;-81
2024/01/08 04:10:21;;;;;;;7.37;5.77;;;;;-1.90;102393.00;;;;9834688;29;20270;-81
2024/01/08 04:15:23;;;;;;;6.83;5.97;;;;;-1.80;102394.00;;;;9831076;29;20369;-84
2024/01/08 04:20:24;;;;;;;6.17;4.67;;;;;-1.90;102406.00;;;;9829082;29;20241;-80
2024/01/08 04:25:26;;;;;;;6.20;5.10;;;;;-1.90;102402.00;;;;9841866;29;20251;-82
2024/01/08 04:30:27;;;;;;;7.90;5.30;;;;;-1.90;102393.00;;;;9822497;29;20247;-81
2024/01/08 04:35:28;;;;;;;6.50;5.10;;;;;-1.90;102403.00;;;;9828174;29;20326;-83
2024/01/08 04:40:29;;;;;;;6.13;5.00;;;;;-1.90;102405.00;;;;9831536;29;20224;-85
2024/01/08 04:45:31;;;;;;;6.03;5.23;;;;;-1.90;102413.00;;;;9833045;29;20240;-86
2024/01/08 04:50:32;;;;;;;7.90;5.20;;;;;-1.90;102415.00;;;;9842869;29;20256;-85
2024/01/08 04:55:33;;;;;;;7.93;4.73;;;;;-1.90;102399.00;;;;9816062;29;20235;-85
2024/01/08 05:00:35;;;;;;;7.00;4.87;;;;;-2.00;102397.00;;;;9833851;29;20255;-85
2024/01/08 05:05:37;;;;;;;7.33;6.13;;;;;-2.20;102391.00;;;;9829147;29;20224;-85
2024/01/08 05:10:38;;;;;;;7.90;6.63;;;;;-2.40;102400.00;;;;9823420;29;20244;-83
2024/01/08 05:15:39;;;;;;;7.80;6.43;;;;;-2.50;102405.00;;;;9848112;29;20660;-84
2024/01/08 05:20:40;;;;;;;8.80;6.30;;;;;-2.50;102405.00;;;;9834532;30;20835;-84
2024/01/08 05:25:41;;;;;;;8.17;6.43;;;;;-2.50;102403.00;;;;9826104;29;20281;-84
2024/01/08 05:30:43;;;;;;;10.80;6.07;;;;;-2.40;102404.00;;;;9804058;29;20263;-85
2024/01/08 05:35:44;;;;;;;6.27;5.17;;;;;-2.40;102397.00;;;;9827809;29;21174;-85
2024/01/08 05:40:46;;;;;;;9.77;5.73;;;;;-2.40;102397.00;;;;9828493;29;20243;-85
2024/01/08 05:45:47;;;;;;;7.77;4.97;;;;;-2.30;102395.00;;;;9843352;29;20317;-85
2024/01/08 05:50:49;;;;;;;8.67;5.87;;;;;-2.30;102381.00;;;;9821494;29;20514;-80
2024/01/08 05:55:50;;;;;;;10.23;6.47;;;;;-2.30;102392.00;;;;9821283;29;20587;-82
2024/01/08 06:00:53;;;;;;;9.33;5.87;;;;;-2.30;102391.00;;;;9821227;29;20981;-80
2024/01/08 06:05:54;;;;;;;7.90;5.73;;;;;-2.30;102392.00;;;;9809037;30;20684;-82
2024/01/08 06:10:56;;;;;;;10.67;6.57;;;;;-2.30;102388.00;;;;9833989;29;20231;-81
2024/01/08 06:15:57;;;;;;;7.03;5.20;;;;;-2.20;102375.00;;;;9817147;29;20919;-81
2024/01/08 06:20:58;;;;;;;8.47;6.27;;;;;-2.20;102388.00;;;;9842413;29;20911;-81
2024/01/08 06:26:03;;;;;;;9.83;6.27;;;;;-2.20;102389.00;;;;9810006;29;20239;-81
2024/01/08 06:31:04;;;;;;;9.30;6.60;;;;;-2.20;102389.00;;;;9815151;29;20235;-83
2024/01/08 06:36:06;;;;;;;9.43;6.93;;;;;-2.30;102377.00;;;;9810646;29;20251;-81
2024/01/08 06:41:08;;;;;;;9.73;6.33;;;;;-2.30;102378.00;;;;9814863;29;20331;-81
2024/01/08 06:46:09;;;;;;;8.07;5.47;;;;;-2.30;102377.00;;;;9812401;29;20243;-80
2024/01/08 06:51:11;;;;;;;11.17;5.50;;;;;-2.30;102365.00;;;;9825199;29;20723;-81
2024/01/08 06:56:12;;;;;;;9.57;5.93;;;;;-2.30;102369.00;;;;9805243;29;20239;-82
2024/01/08 07:01:15;;;;;;;9.27;5.83;;;;;-2.30;102381.00;;;;9829283;29;20338;-86
2024/01/08 07:06:17;;;;;;;9.20;6.00;;;;;-2.30;102367.00;;;;9844030;29;20244;-86
2024/01/08 07:11:24;;;;;;;7.93;6.10;;;;;-2.20;102384.00;;;;9823935;29;20239;-86
2024/01/08 07:16:26;;;;;;;11.70;7.00;;;;;-2.30;102383.00;;;;9837952;29;20236;-85
2024/01/08 07:21:28;;;;;;;10.70;6.97;;;;;-2.30;102386.00;;;;9863925;29;20232;-85
2024/01/08 07:26:29;;;;;;;9.73;6.50;;;;;-2.20;102392.00;;;;9828448;29;20231;-86
2024/01/08 07:31:30;;;;;;;11.27;6.50;;;;;-2.30;102400.00;;;;9824584;29;20294;-86
2024/01/08 07:36:32;;;;;;;8.63;6.37;;;;;-2.30;102396.00;;;;9817879;29;20294;-86
2024/01/08 07:41:33;;;;;;;10.17;6.37;;;;;-2.20;102401.00;;;;9814040;30;20232;-86
2024/01/08 07:46:34;;;;;;;8.80;6.77;;;;;-2.20;102403.00;;;;9819628;29;20818;-86
2024/01/08 07:51:35;;;;;;;9.97;6.30;;;;;-2.20;102408.00;;;;9820697;30;20235;-85
2024/01/08 07:56:37;;;;;;;12.20;6.20;;;;;-2.10;102418.00;;;;9815851;29;20259;-84
2024/01/08 08:01:49;;;;;;;11.60;6.67;;;;;-2.10;102411.00;;;;9830469;29;20244;-84
2024/01/08 08:06:51;;;;;;;11.73;7.33;;;;;-2.10;102425.00;;;;9813127;29;20243;-82
2024/01/08 08:11:52;;;;;;;11.27;7.53;;;;;-2.00;102422.00;;;;9818487;29;20239;-84
2024/01/08 08:16:54;;;;;;;10.23;7.97;;;;;-2.00;102424.00;;;;9807742;29;21005;-86
2024/01/08 08:21:55;;;;;;;10.70;6.77;;;;;-2.00;102422.00;;;;9814428;30;20255;-83
2024/01/08 08:26:57;;;;;;;11.80;7.37;;;;;-1.90;102422.00;;;;9817758;29;20260;-81
2024/01/08 08:31:58;;;;;;;13.53;8.10;;;;;-1.80;102431.00;;;;9816784;29;20236;-80
2024/01/08 08:37:02;;;;;;;12.07;7.70;;;;;-1.70;102438.00;;;;9795194;29;20271;-80
2024/01/08 08:42:08;;;;;;;14.87;8.73;;;;;-1.60;102450.00;;;;9820343;30;20313;-81
2024/01/08 08:47:09;;;;;;;12.93;9.13;;;;;-1.60;102449.00;;;;9835966;29;20319;-80
2024/01/08 08:52:10;;;;;;;12.03;7.70;;;;;-1.50;102444.00;;;;9825619;29;20466;-81
2024/01/08 08:57:11;;;;;;;10.87;7.57;;;;;-1.50;102438.00;;;;9829318;29;20284;-80
2024/01/08 09:02:12;;;;;;;13.83;9.07;;;;;-1.40;102443.00;;;;9819233;29;20319;-81
2024/01/08 09:07:14;;;;;;;12.10;8.17;;;;;-1.40;102447.00;;;;9827767;29;20228;-81
2024/01/08 09:12:15;;;;;;;12.90;8.97;;;;;-1.60;102437.00;;;;9824033;29;20247;-80
2024/01/08 09:17:16;;;;;;;21.30;9.20;;;;;-1.60;102443.00;;;;9822281;29;20248;-83
2024/01/08 09:22:18;;;;;;;16.17;9.97;;;;;-1.60;102447.00;;;;9808261;30;20247;-81
2024/01/08 09:27:19;;;;;;;15.87;10.00;;;;;-1.50;102441.00;;;;9819522;29;20573;-80
2024/01/08 09:32:20;;;;;;;14.93;9.57;;;;;-1.40;102445.00;;;;9817990;29;20979;-80
2024/01/08 09:37:22;;;;;;;14.07;9.60;;;;;-1.40;102446.00;;;;9821043;29;20251;-79
2024/01/08 09:42:26;;;;;;;14.47;9.50;;;;;-1.40;102446.00;;;;9838982;29;20224;-81
2024/01/08 09:47:28;;;;;;;15.63;9.30;;;;;-1.20;102446.00;;;;9839568;29;20251;-80
2024/01/08 09:52:32;;;;;;;16.40;10.17;;;;;-1.10;102453.00;;;;9836548;29;20329;-80
2024/01/08 09:57:42;;;;;;;16.50;10.83;;;;;-0.80;102450.00;;;;9829710;29;20916;-80
2024/01/08 10:02:57;;;;;;;14.90;10.03;;;;;-0.60;102442.00;;;;9821905;29;20236;-82
2024/01/08 10:08:00;;;;;;;18.77;10.50;;;;;-0.60;102433.00;;;;9832185;29;20220;-81
2024/01/08 10:13:11;;;;;;;16.67;11.53;;;;;-0.40;102442.00;;;;9834172;29;20228;-80
2024/01/08 10:18:14;;;;;;;18.93;10.70;;;;;-0.10;102439.00;;;;9818230;29;20604;-81
2024/01/08 10:23:16;;;;;;;20.33;10.87;;;;;0.10;102433.00;;;;9823367;29;20274;-80
2024/01/08 10:28:19;;;;;;;15.73;10.33;;;;;-0.20;102436.00;;;;9823337;29;20301;-80
2024/01/08 10:33:20;;;;;;;13.80;10.47;;;;;-0.50;102430.00;;;;9821715;29;20333;-81
2024/01/08 10:38:22;;;;;;;12.67;9.63;;;;;-0.50;102429.00;;;;9834381;29;20247;-82
2024/01/08 10:43:24;;;;;;;16.47;11.03;;;;;-0.50;102429.00;;;;9842948;30;20691;-81
2024/01/08 10:48:40;;;;;;;17.20;10.00;;;;;-0.40;102431.00;;;;9818251;29;20311;-82
2024/01/08 10:53:53;;;;;;;18.40;10.67;;;;;-0.30;102413.00;;;;9846837;29;20223;-82
2024/01/08 10:59:10;;;;;;;12.77;9.57;;;;;0.00;102419.00;;;;9824478;29;20263;-82
2024/01/08 11:04:12;;;;;;;15.40;10.37;;;;;-0.10;102410.00;;;;9816127;29;20240;-81
2024/01/08 11:09:26;;;;;;;10.43;8.17;;;;;-0.30;102412.00;;;;9830956;29;20228;-82
2024/01/08 11:14:29;;;;;;;11.97;8.83;;;;;-0.30;102401.00;;;;9835061;29;20242;-80
2024/01/08 11:19:31;;;;;;;12.13;8.57;;;;;-0.10;102399.00;;;;9831890;29;20272;-81
2024/01/08 11:24:32;;;;;;;12.10;9.03;;;;;0.00;102395.00;;;;9848463;29;20232;-82
2024/01/08 11:29:34;;;;;;;14.37;9.27;;;;;0.30;102392.00;;;;9832829;29;20236;-81
2024/01/08 11:34:56;;;;;;;12.23;9.33;;;;;0.90;102390.00;;;;9821174;29;20232;-81
2024/01/08 11:40:17;;;;;;;11.50;7.50;;;;;1.60;102381.00;;;;9830321;29;20239;-79
2024/01/08 11:45:20;;;;;;;8.10;6.60;;;;;1.30;102368.00;;;;9824897;29;20240;-79
2024/01/08 11:50:22;;;;;;;9.17;7.50;;;;;1.00;102377.00;;;;9846474;29;20243;-77
2024/01/08 11:55:24;;;;;;;7.47;6.27;;;;;0.70;102378.00;;;;9818076;29;20260;-77
2024/01/08 12:00:29;;;;;;;8.37;6.97;;;;;1.00;102374.00;;;;9832840;29;20874;-80
2024/01/08 12:05:31;;;;;;;8.23;7.10;;;;;0.70;102366.00;;;;9836434;29;20232;-84
2024/01/08 12:10:32;;;;;;;9.60;7.07;;;;;0.80;102370.00;;;;9826214;29;20232;-78
2024/01/08 12:15:34;;;;;;;8.93;7.57;;;;;2.00;102371.00;;;;9855889;29;20239;-79
2024/01/08 12:20:35;;;;;;;7.97;6.13;;;;;2.10;102375.00;;;;9823776;29;20258;-77
2024/01/08 12:25:36;;;;;;;8.53;6.60;;;;;1.20;102369.00;;;;9807125;29;20266;-78
2024/01/08 12:30:39;;;;;;;9.30;7.00;;;;;0.60;102369.00;;;;9842188;29;20361;-78
2024/01/08 12:35:42;;;;;;;7.63;6.30;;;;;0.30;102378.00;;;;9839373;29;20262;-78
2024/01/08 12:40:43;;;;;;;11.93;8.20;;;;;0.10;102372.00;;;;9848466;29;20795;-78
2024/01/08 12:45:47;;;;;;;8.60;7.40;;;;;0.00;102358.00;;;;9834090;29;20248;-78
2024/01/08 12:50:48;;;;;;;13.77;7.63;;;;;-0.10;102358.00;;;;9840998;29;20247;-81
2024/01/08 12:55:53;;;;;;;9.73;7.03;;;;;0.10;102355.00;;;;9828739;29;20293;-81
2024/01/08 13:00:55;;;;;;;8.93;7.73;;;;;0.10;102360.00;;;;9827918;29;20267;-80
2024/01/08 13:05:57;;;;;;;7.40;6.47;;;;;0.10;102355.00;;;;9823685;29;20261;-81
2024/01/08 13:10:59;;;;;;;8.67;7.17;;;;;0.10;102352.00;;;;9823639;29;20664;-81
2024/01/08 13:16:01;;;;;;;7.80;6.63;;;;;0.30;102345.00;;;;9824368;30;20237;-81
2024/01/08 13:21:03;;;;;;;7.33;6.23;;;;;0.40;102342.00;;;;9807017;29;20228;-80
2024/01/08 13:26:05;;;;;;;13.47;7.03;;;;;0.40;102341.00;;;;9832906;29;20224;-80
2024/01/08 13:31:06;;;;;;;8.30;6.10;;;;;0.30;102326.00;;;;9839521;29;20925;-79
2024/01/08 13:36:09;;;;;;;8.37;5.40;;;;;0.20;102333.00;;;;9823753;29;20236;-80
2024/01/08 13:41:11;;;;;;;6.87;5.07;;;;;0.40;102336.00;;;;9806415;30;20244;-79
2024/01/08 13:46:13;;;;;;;9.00;5.13;;;;;0.30;102319.00;;;;9836933;29;20248;-80
2024/01/08 13:51:16;;;;;;;5.00;4.23;;;;;0.30;102327.00;;;;9821713;29;20267;-80
2024/01/08 13:56:17;;;;;;;5.17;4.60;;;;;0.20;102333.00;;;;9820479;29;20330;-79
2024/01/08 14:01:19;;;;;;;6.27;4.97;;;;;0.20;102332.00;;;;9835275;29;20932;-81
2024/01/08 14:06:21;;;;;;;7.57;4.37;;;;;0.20;102332.00;;;;9816949;29;20240;-81
2024/01/08 14:11:23;;;;;;;6.40;4.30;;;;;0.20;102329.00;;;;9816514;29;20228;-82
2024/01/08 14:16:24;;;;;;;7.80;4.80;;;;;0.20;102340.00;;;;9803098;29;20235;-81
2024/01/08 14:21:26;;;;;;;6.03;4.50;;;;;0.20;102332.00;;;;9816137;29;20287;-82
2024/01/08 14:26:27;;;;;;;4.97;3.97;;;;;0.10;102333.00;;;;9819025;29;20232;-81
2024/01/08 14:31:28;;;;;;;9.77;3.83;;;;;0.00;102341.00;;;;9772674;29;20239;-82
2024/01/08 14:36:29;;;;;;;7.97;4.83;;;;;-0.20;102343.00;;;;9802713;29;20240;-82
2024/01/08 14:41:31;;;;;;;5.83;4.20;;;;;-0.30;102342.00;;;;9826549;29;20289;-82
2024/01/08 14:46:32;;;;;;;5.60;3.87;;;;;-0.30;102342.00;;;;9818769;29;21676;-83
2024/01/08 14:51:34;;;;;;;5.13;4.33;;;;;-0.40;102348.00;;;;9811219;29;20267;-83
2024/01/08 14:56:37;;;;;;;9.30;4.67;;;;;-0.50;102345.00;;;;9809714;29;20223;-83
2024/01/08 15:01:39;;;;;;;5.43;3.67;;;;;-0.50;102353.00;;;;9825837;29;20747;-84
2024/01/08 15:06:40;;;;;;;4.83;3.60;;;;;-0.60;102354.00;;;;9819540;29;20228;-83
2024/01/08 15:11:41;;;;;;;10.30;4.17;;;;;-0.70;102352.00;;;;9821530;29;20227;-82
2024/01/08 15:16:46;;;;;;;6.17;4.00;;;;;-0.80;102358.00;;;;9823496;29;20243;-83
2024/01/08 15:21:51;;;;;;;5.17;4.10;;;;;-0.90;102358.00;;;;9822829;30;20240;-86
2024/01/08 15:26:52;;;;;;;9.57;4.40;;;;;-1.00;102352.00;;;;9813082;30;20225;-85
2024/01/08 15:31:54;;;;;;;7.70;4.43;;;;;-1.10;102372.00;;;;9827689;29;21572;-86
2024/01/08 15:36:55;;;;;;;6.43;4.20;;;;;-1.20;102365.00;;;;9813253;29;20762;-85
2024/01/08 15:41:56;;;;;;;7.27;4.13;;;;;-1.30;102371.00;;;;9825259;29;20293;-85
2024/01/08 15:46:58;;;;;;;4.40;3.50;;;;;-1.50;102385.00;;;;9806004;29;20319;-85
2024/01/08 15:52:00;;;;;;;6.70;4.27;;;;;-1.50;102378.00;;;;9814312;29;20239;-88
2024/01/08 15:57:01;;;;;;;3.57;2.97;;;;;-1.60;102383.00;;;;9817069;29;20305;-89
2024/01/08 16:02:03;;;;;;;3.93;3.30;;;;;-1.70;102377.00;;;;9792074;29;20232;-85
2024/01/08 16:07:05;;;;;;;5.97;3.03;;;;;-1.70;102392.00;;;;9823331;29;20231;-86
2024/01/08 16:12:07;;;;;;;3.23;2.77;;;;;-1.80;102394.00;;;;9808182;29;20262;-85
2024/01/08 16:17:09;;;;;;;5.97;3.83;;;;;-1.80;102405.00;;;;9817190;29;20251;-84
2024/01/08 16:22:10;;;;;;;6.13;2.90;;;;;-1.90;102403.00;;;;9826013;29;20236;-85
2024/01/08 16:27:11;;;;;;;7.13;3.47;;;;;-1.90;102408.00;;;;9823099;29;20254;-83
2024/01/08 16:32:12;;;;;;;8.13;3.90;;;;;-2.00;102412.00;;;;9834918;29;20713;-82
2024/01/08 16:37:13;;;;;;;5.90;3.80;;;;;-2.00;102434.00;;;;9825530;29;20244;-82
2024/01/08 16:42:15;;;;;;;7.07;4.50;;;;;-2.10;102425.00;;;;9818774;29;20239;-82
2024/01/08 16:47:20;;;;;;;7.83;4.50;;;;;-2.10;102430.00;;;;9834635;29;20259;-83
2024/01/08 16:52:21;;;;;;;7.97;4.13;;;;;-2.20;102431.00;;;;9820958;29;20262;-81
2024/01/08 16:57:22;;;;;;;5.93;3.70;;;;;-2.20;102435.00;;;;9794049;29;20893;-83
2024/01/08 17:02:23;;;;;;;6.60;4.13;;;;;-2.20;102438.00;;;;9778738;29;20611;-83
2024/01/08 17:07:25;;;;;;;5.73;3.90;;;;;-2.20;102437.00;;;;9816596;29;20224;-82
2024/01/08 17:12:26;;;;;;;7.17;3.33;;;;;-2.20;102440.00;;;;9832151;30;20319;-81
2024/01/08 17:17:27;;;;;;;4.53;2.93;;;;;-2.20;102429.00;;;;9824786;29;20301;-81
2024/01/08 17:22:31;;;;;;;6.37;3.90;;;;;-2.20;102435.00;;;;9822433;29;20666;-83
2024/01/08 17:27:32;;;;;;;8.40;3.93;;;;;-2.20;102440.00;;;;9773936;30;20375;-82
2024/01/08 17:32:35;;;;;;;7.40;4.00;;;;;-2.20;102458.00;;;;9817742;29;20352;-83
2024/01/08 17:37:36;;;;;;;5.83;3.70;;;;;-2.20;102444.00;;;;9826022;29;20274;-84
2024/01/08 17:42:38;;;;;;;6.43;3.67;;;;;-2.20;102449.00;;;;9829122;29;20706;-85
2024/01/08 17:47:39;;;;;;;5.63;3.30;;;;;-2.20;102452.00;;;;9811957;30;20277;-86
2024/01/08 17:52:40;;;;;;;4.13;3.23;;;;;-2.20;102451.00;;;;9827582;29;20382;-87
2024/01/08 17:57:41;;;;;;;5.20;3.43;;;;;-2.30;102459.00;;;;9823451;29;20250;-86
2024/01/08 18:02:43;;;;;;;3.73;3.10;;;;;-2.30;102463.00;;;;9837565;29;20239;-87
2024/01/08 18:07:44;;;;;;;6.67;3.80;;;;;-2.30;102480.00;;;;9828189;30;20277;-87
2024/01/08 18:12:46;;;;;;;7.33;3.97;;;;;-2.30;102481.00;;;;9821731;29;20917;-88
2024/01/08 18:17:50;;;;;;;6.73;2.80;;;;;-2.40;102483.00;;;;9815841;29;20244;-87
2024/01/08 18:22:52;;;;;;;5.60;3.73;;;;;-2.40;102483.00;;;;9831536;29;20232;-87
2024/01/08 18:27:53;;;;;;;6.50;3.43;;;;;-2.40;102499.00;;;;9815951;29;20227;-86
2024/01/08 18:32:54;;;;;;;5.10;2.90;;;;;-2.40;102502.00;;;;9834087;29;20902;-87
2024/01/08 18:37:56;;;;;;;8.33;3.80;;;;;-2.40;102489.00;;;;9821828;29;20671;-86
2024/01/08 18:42:57;;;;;;;4.73;2.93;;;;;-2.40;102489.00;;;;9848069;29;20232;-85
2024/01/08 18:47:59;;;;;;;7.23;3.60;;;;;-2.50;102498.00;;;;9814633;29;20277;-86
2024/01/08 18:53:01;;;;;;;4.77;3.80;;;;;-2.50;102490.00;;;;9818746;29;20706;-81
2024/01/08 18:58:02;;;;;;;5.20;3.67;;;;;-2.60;102497.00;;;;9824003;29;20255;-80
2024/01/08 19:03:05;;;;;;;8.40;4.47;;;;;-2.60;102502.00;;;;9823488;29;20329;-81
2024/01/08 19:08:06;;;;;;;5.63;3.27;;;;;-2.70;102489.00;;;;9816307;29;20236;-80
2024/01/08 19:13:08;;;;;;;5.77;3.40;;;;;-2.70;102496.00;;;;9820266;29;20592;-80
2024/01/08 19:18:09;;;;;;;8.63;4.10;;;;;-2.70;102492.00;;;;9820577;29;20243;-80
2024/01/08 19:23:11;;;;;;;9.30;4.43;;;;;-2.80;102502.00;;;;9807951;29;20236;-80
2024/01/08 19:28:12;;;;;;;6.27;4.33;;;;;-2.80;102495.00;;;;9831068;29;20727;-80
2024/01/08 19:33:13;;;;;;;6.37;4.27;;;;;-2.90;102502.00;;;;9810453;29;20264;-81
2024/01/08 19:38:15;;;;;;;4.83;4.03;;;;;-2.90;102507.00;;;;9818480;29;20275;-80
2024/01/08 19:43:16;;;;;;;4.90;3.87;;;;;-3.00;102514.00;;;;9834866;29;20236;-80
2024/01/08 19:48:17;;;;;;;7.37;4.40;;;;;-3.00;102509.00;;;;9813001;29;20256;-81
2024/01/08 19:53:19;;;;;;;5.93;3.63;;;;;-3.10;102509.00;;;;9837567;29;20296;-80
2024/01/08 19:58:21;;;;;;;5.67;3.90;;;;;-3.10;102497.00;;;;9795002;29;20323;-80
2024/01/08 20:03:22;;;;;;;8.33;4.97;;;;;-3.10;102512.00;;;;9796821;29;20235;-79
2024/01/08 20:08:23;;;;;;;5.83;4.13;;;;;-3.20;102503.00;;;;9808852;30;20255;-80
2024/01/08 20:13:25;;;;;;;7.53;4.30;;;;;-3.20;102511.00;;;;9819175;29;20330;-79
2024/01/08 20:18:26;;;;;;;7.23;4.20;;;;;-3.20;102508.00;;;;9825558;29;20297;-80
2024/01/08 20:23:27;;;;;;;15.57;4.70;;;;;-3.30;102507.00;;;;9833651;30;20232;-80
2024/01/08 20:28:28;;;;;;;7.67;4.73;;;;;-3.30;102516.00;;;;9840811;29;20549;-80
2024/01/08 20:33:31;;;;;;;7.97;5.13;;;;;-3.30;102512.00;;;;9829444;29;20247;-81
2024/01/08 20:38:32;;;;;;;10.17;5.00;;;;;-3.40;102518.00;;;;9824445;29;20239;-80
2024/01/08 20:43:33;;;;;;;9.43;5.00;;;;;-3.40;102508.00;;;;9822301;29;20235;-81
2024/01/08 20:48:34;;;;;;;10.37;5.13;;;;;-3.40;102510.00;;;;9827683;29;20329;-80
2024/01/08 20:53:36;;;;;;;8.47;4.87;;;;;-3.50;102514.00;;;;9823576;29;20236;-81
2024/01/08 20:58:37;;;;;;;9.50;5.50;;;;;-3.50;102510.00;;;;9830753;29;20239;-81
2024/01/08 21:03:38;;;;;;;12.03;5.93;;;;;-3.50;102510.00;;;;9839118;29;20951;-80
2024/01/08 21:08:39;;;;;;;7.03;4.67;;;;;-3.60;102511.00;;;;9823209;29;20228;-80
2024/01/08 21:13:44;;;;;;;8.87;5.07;;;;;-3.60;102508.00;;;;9825117;29;20686;-78
2024/01/08 21:18:45;;;;;;;7.30;5.07;;;;;-3.60;102506.00;;;;9824440;29;20232;-79
2024/01/08 21:23:46;;;;;;;10.50;5.47;;;;;-3.60;102513.00;;;;9803382;29;20373;-79
2024/01/08 21:28:48;;;;;;;7.27;5.03;;;;;-3.60;102514.00;;;;9821547;29;20361;-79
2024/01/08 21:33:49;;;;;;;8.00;4.23;;;;;-3.70;102510.00;;;;9810630;29;20686;-78
2024/01/08 21:38:50;;;;;;;7.80;5.23;;;;;-3.70;102524.00;;;;9828073;29;20251;-78
2024/01/08 21:43:52;;;;;;;10.57;4.80;;;;;-3.70;102510.00;;;;9851123;29;20227;-78
2024/01/08 21:48:53;;;;;;;9.50;5.30;;;;;-3.70;102513.00;;;;9833251;29;20302;-78
2024/01/08 21:53:54;;;;;;;8.17;5.27;;;;;-3.70;102507.00;;;;9829112;29;20239;-78
2024/01/08 21:58:56;;;;;;;8.33;5.23;;;;;-3.70;102507.00;;;;9825339;29;20243;-77
2024/01/08 22:03:57;;;;;;;8.00;4.40;;;;;-3.70;102508.00;;;;9814804;29;20243;-80
2024/01/08 22:08:58;;;;;;;7.97;4.50;;;;;-3.80;102503.00;;;;9825385;30;20236;-78
2024/01/08 22:13:59;;;;;;;9.20;5.37;;;;;-3.80;102520.00;;;;9848135;29;20243;-78
2024/01/08 22:19:01;;;;;;;11.03;5.80;;;;;-3.80;102528.00;;;;9839975;29;20283;-81
2024/01/08 22:24:02;;;;;;;7.53;5.00;;;;;-3.80;102531.00;;;;9809125;29;20224;-88
2024/01/08 22:29:03;;;;;;;15.33;5.77;;;;;-3.80;102539.00;;;;9856914;29;20224;-85
2024/01/08 22:34:07;;;;;;;7.43;4.97;;;;;-3.80;102539.00;;;;9841246;29;20307;-86
2024/01/08 22:39:09;;;;;;;7.63;4.47;;;;;-3.80;102528.00;;;;9834543;29;20236;-87
2024/01/08 22:44:10;;;;;;;6.43;4.60;;;;;-3.80;102536.00;;;;9806516;29;20247;-88
2024/01/08 22:49:25;;;;;;;10.00;5.07;;;;;-3.80;102535.00;;;;9815349;29;20239;-87
2024/01/08 22:54:26;;;;;;;8.53;5.10;;;;;-3.90;102540.00;;;;9823856;30;20239;-86
2024/01/08 22:59:27;;;;;;;9.23;4.90;;;;;-3.90;102535.00;;;;9855643;29;20363;-86
2024/01/08 23:04:29;;;;;;;8.83;5.80;;;;;-3.90;102525.00;;;;9819464;29;20228;-87
2024/01/08 23:09:30;;;;;;;8.53;5.37;;;;;-3.90;102526.00;;;;9818798;29;20293;-87
2024/01/08 23:14:31;;;;;;;7.57;4.63;;;;;-4.00;102527.00;;;;9826285;30;20277;-88
2024/01/08 23:19:33;;;;;;;7.60;4.83;;;;;-4.00;102533.00;;;;9809575;29;20238;-87
2024/01/08 23:24:36;;;;;;;10.37;5.87;;;;;-4.00;102524.00;;;;9816384;29;20827;-86
2024/01/08 23:29:37;;;;;;;9.20;5.50;;;;;-4.00;102533.00;;;;9822111;29;20310;-87
2024/01/08 23:34:38;;;;;;;7.80;5.20;;;;;-4.00;102527.00;;;;9826318;30;20932;-87
2024/01/08 23:39:40;;;;;;;10.70;5.47;;;;;-3.70;102546.00;;;;9818685;29;20293;-87
2024/01/08 23:44:41;;;;;;;8.20;5.50;;;;;-3.40;102540.00;;;;9843653;29;20251;-88
2024/01/08 23:49:42;;;;;;;9.27;4.73;;;;;-3.40;102540.00;;;;9822380;29;20236;-88
2024/01/08 23:54:44;;;;;;;7.27;4.57;;;;;-3.60;102541.00;;;;9820633;29;20232;-88
2024/01/08 23:59:45;;;;;;;7.70;4.80;;;;;-3.90;102555.00;;;;9827077;29;20277;-87
